Time;durP1;ratioP1;P1;durP2;ratioP2;P2;SDS_P1;SDS_P2;PMS_P1;PMS_P2;Temp;Humidity;BMP_temperature;BMP_pressure;BME280_temperature;BME280_humidity;BME280_pressure;Samples;Min_cycle;Max_cycle;Signal;HPM_P1;HPM_P2
2023/03/13 00:00:01;;;;;;;;;;;;;;;5.76;66.74;99625.69;5094651;28;19926;-66
2023/03/13 00:02:33;;;;;;;;;;;;;;;5.74;67.32;99617.19;5094862;28;20367;-65
2023/03/13 00:05:02;;;;;;;;;;;;;;;5.71;67.68;99622.22;5094633;28;19959;-65
2023/03/13 00:07:31;;;;;;;;;;;;;;;5.67;68.02;99636.47;5094504;28;19923;-65
2023/03/13 00:09:59;;;;;;;;;;;;;;;5.73;67.96;99628.16;5094429;28;19929;-65
2023/03/13 00:12:28;;;;;;;;;;;;;;;5.78;68.44;99629.91;5094272;28;19919;-65
2023/03/13 00:14:56;;;;;;;;;;;;;;;5.82;68.51;99621.56;5094324;28;19927;-66
2023/03/13 00:17:25;;;;;;;;;;;;;;;5.86;68.26;99614.88;5094371;28;19920;-66
2023/03/13 00:19:55;;;;;;;;;;;;;;;5.88;68.34;99616.63;5094340;28;19927;-66
2023/03/13 00:22:24;;;;;;;;;;;;;;;5.91;68.00;99615.81;5094612;28;19920;-65
2023/03/13 00:24:52;;;;;;;;;;;;;;;5.89;68.41;99610.75;5094273;28;19959;-66
2023/03/13 00:27:21;;;;;;;;;;;;;;;5.88;68.36;99613.22;5094509;28;20002;-64
2023/03/13 00:29:49;;;;;;;;;;;;;;;5.94;68.42;99608.28;5093296;28;19920;-65
2023/03/13 00:32:18;;;;;;;;;;;;;;;5.92;68.29;99607.41;5094494;28;20281;-65
2023/03/13 00:34:46;;;;;;;;;;;;;;;5.88;68.17;99587.91;5094090;28;19926;-65
2023/03/13 00:37:16;;;;;;;;;;;;;;;5.83;68.32;99584.44;5094802;28;19928;-65
2023/03/13 00:39:45;;;;;;;;;;;;;;;5.82;68.44;99585.25;5093557;28;20338;-65
2023/03/13 00:42:13;;;;;;;;;;;;;;;5.86;68.79;99581.97;5094046;28;20388;-65
2023/03/13 00:44:42;;;;;;;;;;;;;;;5.91;68.82;99583.75;5093870;28;19959;-66
2023/03/13 00:47:10;;;;;;;;;;;;;;;5.97;69.16;99580.47;5093980;28;19924;-66
2023/03/13 00:49:39;;;;;;;;;;;;;;;5.97;68.66;99575.41;5093990;28;20394;-66
2023/03/13 00:52:07;;;;;;;;;;;;;;;5.95;68.77;99570.31;5094407;28;19920;-66
2023/03/13 00:54:38;;;;;;;;;;;;;;;5.94;68.92;99563.56;5093896;28;19920;-65
2023/03/13 00:57:06;;;;;;;;;;;;;;;5.93;69.71;99566.03;5093995;28;19920;-66
2023/03/13 00:59:35;;;;;;;;;;;;;;;5.95;69.63;99562.72;5093890;28;19920;-65
2023/03/13 01:02:03;;;;;;;;;;;;;;;5.95;69.53;99569.47;5094216;28;19919;-66
2023/03/13 01:04:33;;;;;;;;;;;;;;;5.89;70.08;99561.75;5092568;28;19920;-65
2023/03/13 01:07:01;;;;;;;;;;;;;;;5.90;70.36;99564.31;5092611;28;19966;-65
2023/03/13 01:09:30;;;;;;;;;;;;;;;5.92;70.41;99564.34;5094602;28;19924;-65
2023/03/13 01:12:00;;;;;;;;;;;;;;;5.91;70.38;99552.50;5098055;28;20014;-65
2023/03/13 01:14:31;;;;;;;;;;;;;;;5.88;70.36;99553.31;5097390;28;19924;-67
2023/03/13 01:16:59;;;;;;;;;;;;;;;5.90;70.34;99553.34;5098438;28;19930;-66
2023/03/13 01:19:27;;;;;;;;;;;;;;;5.89;69.98;99546.56;5098017;28;20346;-66
2023/03/13 01:21:57;;;;;;;;;;;;;;;5.89;70.45;99538.97;5097658;28;19927;-65
2023/03/13 01:24:26;;;;;;;;;;;;;;;5.87;70.53;99528.81;5097850;28;19920;-65
2023/03/13 01:26:54;;;;;;;;;;;;;;;5.87;69.97;99527.97;5096384;28;20384;-64
2023/03/13 01:29:25;;;;;;;;;;;;;;;5.89;70.12;99526.31;5097838;28;19920;-64
2023/03/13 01:31:54;;;;;;;;;;;;;;;5.88;69.75;99527.13;5096202;28;19920;-63
2023/03/13 01:34:22;;;;;;;;;;;;;;;5.89;70.20;99526.31;5097382;28;19951;-64
2023/03/13 01:36:51;;;;;;;;;;;;;;;5.92;70.31;99528.91;5096226;28;19926;-65
2023/03/13 01:39:20;;;;;;;;;;;;;;;5.94;70.24;99529.78;5097314;28;20373;-65
2023/03/13 01:41:48;;;;;;;;;;;;;;;5.95;70.33;99526.41;5096084;28;19920;-66
2023/03/13 01:44:21;;;;;;;;;;;;;;;5.96;70.21;99533.16;5097268;28;20381;-65
2023/03/13 01:46:51;;;;;;;;;;;;;;;5.97;69.88;99532.34;5096254;28;20351;-65
2023/03/13 01:49:28;;;;;;;;;;;;;;;5.98;70.33;99523.91;5097143;28;19927;-65
2023/03/13 01:52:10;;;;;;;;;;;;;;;5.99;70.21;99529.03;5097401;28;19963;-65
2023/03/13 01:54:49;;;;;;;;;;;;;;;5.98;70.19;99526.44;5097308;28;19974;-65
2023/03/13 01:57:22;;;;;;;;;;;;;;;5.97;70.17;99522.22;5095890;28;19924;-64
2023/03/13 01:59:53;;;;;;;;;;;;;;;5.98;70.28;99516.31;5095803;28;19973;-64
2023/03/13 02:02:24;;;;;;;;;;;;;;;5.94;69.97;99509.50;5097249;28;19920;-64
2023/03/13 02:04:54;;;;;;;;;;;;;;;5.89;69.89;99513.66;5096911;28;19920;-64
2023/03/13 02:07:27;;;;;;;;;;;;;;;5.92;70.05;99517.09;5095596;28;19920;-65
2023/03/13 02:09:56;;;;;;;;;;;;;;;5.92;70.50;99511.16;5095635;28;19928;-65
2023/03/13 02:12:29;;;;;;;;;;;;;;;5.90;70.60;99518.72;5095433;28;19919;-65
2023/03/13 02:14:59;;;;;;;;;;;;;;;5.91;70.57;99510.31;5095304;28;19920;-65
2023/03/13 02:17:30;;;;;;;;;;;;;;;5.87;70.56;99512.78;5095269;28;19927;-64
2023/03/13 02:19:59;;;;;;;;;;;;;;;5.85;71.03;99524.56;5096250;28;19927;-64
2023/03/13 02:22:32;;;;;;;;;;;;;;;5.84;71.16;99515.22;5094979;28;19955;-65
2023/03/13 02:25:05;;;;;;;;;;;;;;;5.85;71.00;99524.56;5095338;28;19931;-65
2023/03/13 02:27:36;;;;;;;;;;;;;;;5.84;71.04;99525.34;5095213;28;20006;-65
2023/03/13 02:30:09;;;;;;;;;;;;;;;5.86;71.25;99536.38;5095545;28;19973;-65
2023/03/13 02:32:38;;;;;;;;;;;;;;;5.88;71.11;99535.59;5096321;28;20015;-65
2023/03/13 02:35:09;;;;;;;;;;;;;;;5.88;71.10;99524.59;5096294;28;19926;-65
2023/03/13 02:37:39;;;;;;;;;;;;;;;5.89;71.00;99523.78;5096420;28;19920;-64
2023/03/13 02:40:15;;;;;;;;;;;;;;;5.87;71.05;99535.56;5095060;28;19920;-64
2023/03/13 02:42:46;;;;;;;;;;;;;;;5.87;70.76;99535.56;5095650;28;20411;-64
2023/03/13 02:45:15;;;;;;;;;;;;;;;5.84;70.94;99530.41;5096455;28;19942;-65
2023/03/13 02:47:44;;;;;;;;;;;;;;;5.86;70.80;99532.19;5096353;28;20365;-65
2023/03/13 02:50:14;;;;;;;;;;;;;;;5.84;70.47;99535.47;5095396;28;20259;-65
2023/03/13 02:52:45;;;;;;;;;;;;;;;5.86;71.09;99521.19;5094670;28;19955;-65
2023/03/13 02:55:16;;;;;;;;;;;;;;;5.87;70.60;99517.84;5096227;28;20278;-64
2023/03/13 02:57:47;;;;;;;;;;;;;;;5.86;70.97;99526.25;5095996;28;19920;-64
2023/03/13 03:00:16;;;;;;;;;;;;;;;5.83;71.07;99526.19;5095784;28;19920;-65
2023/03/13 03:02:45;;;;;;;;;;;;;;;5.79;71.24;99534.56;5094553;28;19927;-64
2023/03/13 03:05:14;;;;;;;;;;;;;;;5.77;71.18;99551.41;5094528;28;20336;-64
2023/03/13 03:07:44;;;;;;;;;;;;;;;5.80;71.37;99552.31;5095548;28;19920;-64
2023/03/13 03:10:12;;;;;;;;;;;;;;;5.77;71.97;99551.41;5095946;28;19927;-64
2023/03/13 03:12:41;;;;;;;;;;;;;;;5.78;71.62;99553.13;5095435;28;19927;-64
2023/03/13 03:15:12;;;;;;;;;;;;;;;5.78;71.58;99558.19;5095505;28;19986;-64
2023/03/13 03:17:47;;;;;;;;;;;;;;;5.79;71.59;99559.88;5094564;28;19920;-64
2023/03/13 03:20:16;;;;;;;;;;;;;;;5.76;71.90;99554.78;5095298;28;19927;-64
2023/03/13 03:22:44;;;;;;;;;;;;;;;5.77;72.11;99566.59;5094175;28;19920;-64
2023/03/13 03:25:13;;;;;;;;;;;;;;;5.73;72.28;99559.78;5094431;28;19927;-64
2023/03/13 03:27:41;;;;;;;;;;;;;;;5.71;72.15;99571.56;5094075;28;19931;-64
2023/03/13 03:30:12;;;;;;;;;;;;;;;5.73;72.68;99575.84;5095430;28;19919;-66
2023/03/13 03:32:41;;;;;;;;;;;;;;;5.77;72.98;99584.31;5094866;28;20182;-64
2023/03/13 03:35:09;;;;;;;;;;;;;;;5.78;72.85;99584.34;5095100;28;19926;-66
2023/03/13 03:37:38;;;;;;;;;;;;;;;5.77;72.64;99591.91;5077287;28;19920;-64
2023/03/13 03:40:08;;;;;;;;;;;;;;;5.79;72.71;99590.25;5093812;28;19920;-64
2023/03/13 03:42:37;;;;;;;;;;;;;;;5.73;72.92;99591.03;5093870;28;19920;-66
2023/03/13 03:45:06;;;;;;;;;;;;;;;5.66;73.06;99584.16;5094046;28;19943;-66
2023/03/13 03:47:36;;;;;;;;;;;;;;;5.62;73.11;99579.00;5076968;28;19950;-66
2023/03/13 03:50:06;;;;;;;;;;;;;;;5.66;73.15;99583.28;5094720;28;19927;-65
2023/03/13 03:52:43;;;;;;;;;;;;;;;5.68;73.60;99591.78;5093615;28;19926;-65
2023/03/13 03:55:12;;;;;;;;;;;;;;;5.71;74.04;99586.75;5093765;28;20312;-65
2023/03/13 03:57:41;;;;;;;;;;;;;;;5.72;74.19;99596.03;5093505;28;19924;-66
2023/03/13 04:00:15;;;;;;;;;;;;;;;5.73;73.79;99600.28;5093856;28;19920;-65
2023/03/13 04:02:51;;;;;;;;;;;;;;;5.70;74.03;99605.31;5095493;28;19950;-66
2023/03/13 04:05:20;;;;;;;;;;;;;;;5.70;74.11;99605.31;5094901;28;19959;-66
2023/03/13 04:07:49;;;;;;;;;;;;;;;5.73;73.99;99610.44;5093633;28;20429;-66
2023/03/13 04:10:18;;;;;;;;;;;;;;;5.70;74.28;99607.84;5093228;28;20007;-66
2023/03/13 04:12:46;;;;;;;;;;;;;;;5.74;74.19;99614.66;5093300;28;19977;-66
2023/03/13 04:15:15;;;;;;;;;;;;;;;5.74;74.23;99607.03;5094312;28;20370;-65
2023/03/13 04:17:43;;;;;;;;;;;;;;;5.76;74.16;99605.41;5093522;28;19920;-65
2023/03/13 04:20:14;;;;;;;;;;;;;;;5.72;74.25;99598.56;5093395;28;19977;-65
2023/03/13 04:22:43;;;;;;;;;;;;;;;5.72;74.33;99599.44;5093543;28;19988;-65
2023/03/13 04:25:12;;;;;;;;;;;;;;;5.72;74.39;99586.78;5094270;28;19950;-65
2023/03/13 04:27:41;;;;;;;;;;;;;;;5.74;74.25;99586.78;5093094;28;19920;-65
2023/03/13 04:30:10;;;;;;;;;;;;;;;5.73;74.24;99590.16;5093004;28;19924;-65
2023/03/13 04:32:42;;;;;;;;;;;;;;;5.68;74.37;99586.69;5094206;28;20374;-65
2023/03/13 04:35:23;;;;;;;;;;;;;;;5.65;74.51;99581.59;5094403;28;19924;-65
2023/03/13 04:38:13;;;;;;;;;;;;;;;5.62;74.75;99594.19;5094165;28;19946;-65
2023/03/13 04:40:52;;;;;;;;;;;;;;;5.60;74.94;99598.38;5094314;28;19947;-66
2023/03/13 04:43:41;;;;;;;;;;;;;;;5.63;74.85;99598.44;5093330;28;19977;-65
2023/03/13 04:46:09;;;;;;;;;;;;;;;5.65;74.90;99599.31;5093997;28;20007;-65
2023/03/13 04:48:49;;;;;;;;;;;;;;;5.60;74.96;99595.84;5093984;28;19951;-65
2023/03/13 04:51:42;;;;;;;;;;;;;;;5.63;75.28;99595.91;5074160;28;19924;-65
2023/03/13 04:54:21;;;;;;;;;;;;;;;5.60;75.29;99598.38;5092711;28;19943;-65
2023/03/13 04:57:01;;;;;;;;;;;;;;;5.60;75.38;99596.69;5094034;28;19920;-66
2023/03/13 04:59:36;;;;;;;;;;;;;;;5.63;75.16;99593.38;5093910;28;19920;-65
2023/03/13 05:02:16;;;;;;;;;;;;;;;5.66;75.05;99595.97;5094186;28;19927;-66
2023/03/13 05:04:44;;;;;;;;;;;;;;;5.68;75.04;99594.31;5093823;28;19964;-65
2023/03/13 05:07:37;;;;;;;;;;;;;;;5.68;75.50;99591.78;5082857;28;19920;-66
2023/03/13 05:10:30;;;;;;;;;;;;;;;5.62;74.95;99597.56;5093851;28;19920;-65
2023/03/13 05:13:10;;;;;;;;;;;;;;;5.61;75.18;99595.03;5094057;28;20393;-65
2023/03/13 05:15:49;;;;;;;;;;;;;;;5.60;74.99;99593.31;5093547;28;19924;-65
2023/03/13 05:18:28;;;;;;;;;;;;;;;5.58;75.49;99590.75;5094122;28;20005;-65
2023/03/13 05:21:08;;;;;;;;;;;;;;;5.58;75.18;99584.84;5094078;28;19920;-65
2023/03/13 05:24:04;;;;;;;;;;;;;;;5.59;75.14;99576.44;5077240;28;19931;-65
2023/03/13 05:26:38;;;;;;;;;;;;;;;5.62;75.57;99579.00;5093717;28;19927;-66
2023/03/13 05:29:17;;;;;;;;;;;;;;;5.62;75.75;99576.47;5094029;28;19920;-65
2023/03/13 05:32:08;;;;;;;;;;;;;;;5.63;75.58;99584.09;5073803;28;19920;-65
2023/03/13 05:34:43;;;;;;;;;;;;;;;5.65;75.39;99582.44;5093759;28;20022;-65
2023/03/13 05:37:23;;;;;;;;;;;;;;;5.64;75.45;99585.78;5093587;28;19926;-65
2023/03/13 05:40:16;;;;;;;;;;;;;;;5.61;75.59;99589.97;5084860;28;19981;-65
2023/03/13 05:43:07;;;;;;;;;;;;;;;5.60;75.56;99588.25;5090305;28;20396;-65
2023/03/13 05:45:46;;;;;;;;;;;;;;;5.63;75.83;99583.25;5093455;28;19927;-64
2023/03/13 05:48:26;;;;;;;;;;;;;;;5.67;75.93;99577.38;5093578;28;19920;-66
2023/03/13 05:51:06;;;;;;;;;;;;;;;5.73;75.80;99582.56;5093414;28;19965;-64
2023/03/13 05:53:50;;;;;;;;;;;;;;;5.75;75.97;99579.25;5093359;28;20361;-64
2023/03/13 05:56:47;;;;;;;;;;;;;;;5.76;76.24;99570.81;5094645;28;19927;-64
2023/03/13 05:59:27;;;;;;;;;;;;;;;5.78;75.92;99575.91;5097639;28;20255;-64
2023/03/13 06:02:13;;;;;;;;;;;;;;;5.82;75.48;99570.91;5096940;28;20005;-64
2023/03/13 06:04:46;;;;;;;;;;;;;;;5.87;76.01;99569.34;5097222;28;19926;-64
2023/03/13 06:07:14;;;;;;;;;;;;;;;5.91;76.00;99576.16;5095541;28;19920;-64
2023/03/13 06:09:43;;;;;;;;;;;;;;;5.90;75.93;99574.44;5096195;28;20270;-65
2023/03/13 06:12:13;;;;;;;;;;;;;;;5.93;76.00;99576.16;5095415;28;19920;-65
2023/03/13 06:14:42;;;;;;;;;;;;;;;5.95;76.03;99572.00;5096683;28;19920;-66
2023/03/13 06:17:21;;;;;;;;;;;;;;;5.96;76.26;99573.69;5096656;28;19927;-64
2023/03/13 06:19:50;;;;;;;;;;;;;;;5.97;76.03;99576.25;5096407;28;19924;-64
2023/03/13 06:22:19;;;;;;;;;;;;;;;5.97;76.25;99575.41;5096508;28;19981;-64
2023/03/13 06:24:48;;;;;;;;;;;;;;;6.00;75.97;99575.44;5096731;28;19993;-64
2023/03/13 06:27:18;;;;;;;;;;;;;;;6.04;75.97;99578.06;5096428;28;20292;-64
2023/03/13 06:29:46;;;;;;;;;;;;;;;6.08;76.16;99573.88;5096367;28;20014;-64
2023/03/13 06:32:15;;;;;;;;;;;;;;;6.10;76.18;99582.34;5096300;28;19920;-65
2023/03/13 06:34:43;;;;;;;;;;;;;;;6.16;75.91;99582.47;5096352;28;19964;-64
2023/03/13 06:37:12;;;;;;;;;;;;;;;6.21;75.82;99575.78;5096457;28;19920;-64
2023/03/13 06:39:40;;;;;;;;;;;;;;;6.26;75.83;99579.25;5096171;28;19924;-65
2023/03/13 06:42:09;;;;;;;;;;;;;;;6.27;75.91;99575.00;5096010;28;19927;-65
2023/03/13 06:44:40;;;;;;;;;;;;;;;6.29;75.95;99573.34;5096454;28;20015;-65
2023/03/13 06:47:23;;;;;;;;;;;;;;;6.28;75.73;99577.59;5095994;28;19920;-64
2023/03/13 06:50:21;;;;;;;;;;;;;;;6.41;75.42;99578.59;5095692;28;20370;-64
2023/03/13 06:53:24;;;;;;;;;;;;;;;6.51;74.88;99588.88;5096380;28;19920;-65
2023/03/13 06:56:07;;;;;;;;;;;;;;;6.70;74.45;99575.63;5095582;28;20018;-64
2023/03/13 06:58:36;;;;;;;;;;;;;;;6.93;74.19;99570.84;5095722;28;19920;-64
2023/03/13 07:01:21;;;;;;;;;;;;;;;7.11;74.26;99575.25;5096688;28;19977;-64
2023/03/13 07:03:50;;;;;;;;;;;;;;;7.20;73.82;99577.88;5116063;28;19920;-66
2023/03/13 07:06:19;;;;;;;;;;;;;;;7.24;73.02;99572.03;5115747;28;19927;-65
2023/03/13 07:08:47;;;;;;;;;;;;;;;7.37;72.46;99576.38;5115944;28;19919;-64
2023/03/13 07:11:16;;;;;;;;;;;;;;;7.56;72.69;99568.13;5115864;28;19920;-64
2023/03/13 07:13:45;;;;;;;;;;;;;;;7.63;71.75;99556.34;5115805;28;19926;-64
2023/03/13 07:16:15;;;;;;;;;;;;;;;7.81;71.28;99559.03;5115372;28;19966;-65
2023/03/13 07:18:44;;;;;;;;;;;;;;;7.89;71.03;99550.63;5098475;28;19966;-64
2023/03/13 07:21:13;;;;;;;;;;;;;;;8.00;70.73;99546.50;5095210;28;20362;-64
2023/03/13 07:23:41;;;;;;;;;;;;;;;8.04;69.93;99554.97;5095591;28;20306;-65
2023/03/13 07:26:12;;;;;;;;;;;;;;;8.09;69.66;99544.00;5095173;28;19920;-64
2023/03/13 07:28:41;;;;;;;;;;;;;;;8.27;68.84;99547.53;5095276;28;19923;-64
2023/03/13 07:31:11;;;;;;;;;;;;;;;8.44;68.45;99545.94;5095104;28;19927;-66
2023/03/13 07:33:41;;;;;;;;;;;;;;;8.52;67.37;99549.38;5095393;28;20333;-65
2023/03/13 07:36:10;;;;;;;;;;;;;;;8.49;67.21;99539.19;5095079;28;19920;-64
2023/03/13 07:38:39;;;;;;;;;;;;;;;8.43;66.32;99540.00;5095275;28;19920;-65
2023/03/13 07:41:07;;;;;;;;;;;;;;;8.40;65.79;99534.03;5100324;28;19952;-65
2023/03/13 07:43:35;;;;;;;;;;;;;;;8.48;65.66;99537.50;5097149;28;19923;-65
2023/03/13 07:46:05;;;;;;;;;;;;;;;8.47;65.21;99530.72;5104247;28;20031;-64
2023/03/13 07:48:34;;;;;;;;;;;;;;;8.57;64.41;99532.44;5115163;28;20411;-65
2023/03/13 07:51:05;;;;;;;;;;;;;;;8.56;64.44;99520.59;5115140;28;19919;-64
2023/03/13 07:53:49;;;;;;;;;;;;;;;8.49;64.25;99519.72;5107672;28;19920;-64
2023/03/13 07:56:47;;;;;;;;;;;;;;;8.56;63.31;99518.03;5094584;28;19927;-64
2023/03/13 07:59:46;;;;;;;;;;;;;;;8.63;62.89;99505.38;5092859;28;19924;-66
2023/03/13 08:02:56;;;;;;;;;;;;;;;8.72;61.93;99507.06;5093838;28;20425;-66
2023/03/13 08:05:54;;;;;;;;;;;;;;;8.83;61.53;99492.69;5094032;28;20419;-64
2023/03/13 08:08:58;;;;;;;;;;;;;;;9.04;60.91;99497.88;5094666;28;19970;-66
2023/03/13 08:11:57;;;;;;;;;;;;;;;9.31;61.12;99500.44;5093438;28;20350;-66
2023/03/13 08:14:54;;;;;;;;;;;;;;;9.55;59.44;99488.59;5094307;28;19927;-68
2023/03/13 08:17:55;;;;;;;;;;;;;;;9.59;59.28;99485.19;5093164;28;19920;-67
2023/03/13 08:20:53;;;;;;;;;;;;;;;9.77;57.79;99490.25;5094163;28;19981;-65
2023/03/13 08:26:41;;;;;;;;;;;;;;;10.17;56.52;99484.31;5094155;28;20370;-65
2023/03/13 08:29:10;;;;;;;;;;;;;;;10.09;56.20;99479.19;5094232;28;19920;-64
2023/03/13 08:31:42;;;;;;;;;;;;;;;10.08;55.79;99468.97;5094060;28;19920;-64
2023/03/13 08:34:35;;;;;;;;;;;;;;;10.24;55.99;99462.19;5094522;28;20019;-65
2023/03/13 08:37:33;;;;;;;;;;;;;;;10.30;55.73;99467.25;5093239;28;20368;-64
2023/03/13 08:40:30;;;;;;;;;;;;;;;10.14;54.59;99466.44;5092418;28;19985;-64
2023/03/13 08:43:30;;;;;;;;;;;;;;;10.04;54.15;99459.63;5093770;28;19927;-64
2023/03/13 08:46:29;;;;;;;;;;;;;;;10.01;54.62;99465.59;5094721;28;19920;-64
2023/03/13 08:49:12;;;;;;;;;;;;;;;10.06;54.32;99463.03;5093658;28;19920;-64
2023/03/13 08:51:40;;;;;;;;;;;;;;;10.27;53.82;99457.91;5094286;28;19924;-64
2023/03/13 08:54:22;;;;;;;;;;;;;;;10.55;53.35;99458.66;5096497;28;19920;-64
2023/03/13 08:57:18;;;;;;;;;;;;;;;10.75;52.87;99467.91;5092937;28;19926;-64
2023/03/13 09:00:23;;;;;;;;;;;;;;;10.86;52.08;99464.47;5093595;28;19951;-64
2023/03/13 09:03:04;;;;;;;;;;;;;;;10.92;51.44;99456.78;5093764;28;19927;-65
2023/03/13 09:05:53;;;;;;;;;;;;;;;10.99;51.38;99461.00;5092408;28;20004;-64
2023/03/13 09:08:51;;;;;;;;;;;;;;;11.06;51.42;99460.91;5091211;28;20381;-64
2023/03/13 09:11:44;;;;;;;;;;;;;;;11.07;51.50;99454.13;5093287;28;19967;-64
2023/03/13 09:14:36;;;;;;;;;;;;;;;11.05;51.54;99450.72;5092946;28;19924;-64
2023/03/13 09:17:18;;;;;;;;;;;;;;;11.11;51.54;99450.72;5091256;28;20398;-64
2023/03/13 09:19:46;;;;;;;;;;;;;;;11.22;51.53;99441.25;5093663;28;19931;-64
2023/03/13 09:22:28;;;;;;;;;;;;;;;11.20;51.24;99441.28;5094102;28;19924;-63
2023/03/13 09:24:56;;;;;;;;;;;;;;;11.33;51.53;99442.00;5093642;28;20014;-64
2023/03/13 09:27:26;;;;;;;;;;;;;;;11.26;51.17;99442.91;5093938;28;19966;-64
2023/03/13 09:29:55;;;;;;;;;;;;;;;11.17;51.30;99438.72;5093789;28;19959;-64
2023/03/13 09:32:25;;;;;;;;;;;;;;;11.21;50.78;99429.31;5096952;28;19923;-64
2023/03/13 09:34:54;;;;;;;;;;;;;;;11.45;51.55;99436.78;5096891;28;19920;-64
2023/03/13 09:37:22;;;;;;;;;;;;;;;11.57;50.62;99443.50;5096890;28;19920;-65
2023/03/13 09:39:51;;;;;;;;;;;;;;;11.66;50.33;99441.72;5097271;28;19971;-64
2023/03/13 09:42:21;;;;;;;;;;;;;;;11.80;50.74;99439.94;5097216;28;19973;-65
2023/03/13 09:44:53;;;;;;;;;;;;;;;11.74;50.38;99434.88;5097661;28;19920;-63
2023/03/13 09:47:24;;;;;;;;;;;;;;;11.78;49.84;99430.59;5097108;28;20006;-64
2023/03/13 09:49:57;;;;;;;;;;;;;;;11.79;49.59;99424.59;5097126;28;19927;-63
2023/03/13 09:52:27;;;;;;;;;;;;;;;11.84;49.22;99420.28;5097108;28;19920;-63
2023/03/13 09:54:59;;;;;;;;;;;;;;;11.99;49.48;99415.88;5097022;28;19926;-64
2023/03/13 09:57:33;;;;;;;;;;;;;;;12.08;49.32;99410.66;5097124;28;19919;-65
2023/03/13 10:00:10;;;;;;;;;;;;;;;11.80;49.06;99404.16;5096927;28;19926;-64
2023/03/13 10:02:38;;;;;;;;;;;;;;;11.66;49.86;99400.81;5096910;28;19919;-64
2023/03/13 10:05:12;;;;;;;;;;;;;;;11.55;49.98;99402.66;5097185;28;19959;-64
2023/03/13 10:07:40;;;;;;;;;;;;;;;11.43;50.11;99398.50;5097160;28;19923;-64
2023/03/13 10:10:13;;;;;;;;;;;;;;;11.37;50.54;99402.81;5097062;28;20008;-63
2023/03/13 10:12:44;;;;;;;;;;;;;;;11.33;51.05;99396.00;5096311;28;20026;-63
2023/03/13 10:15:28;;;;;;;;;;;;;;;11.32;51.08;99396.91;5104623;28;19919;-64
2023/03/13 10:17:57;;;;;;;;;;;;;;;11.31;50.88;99397.75;5116763;28;19927;-65
2023/03/13 10:20:28;;;;;;;;;;;;;;;11.44;51.35;99389.13;5115210;28;19999;-64
2023/03/13 10:22:59;;;;;;;;;;;;;;;11.83;51.08;99381.06;5110658;27;19920;-65
2023/03/13 10:25:30;;;;;;;;;;;;;;;12.23;50.40;99378.06;5107762;28;19927;-66
2023/03/13 10:27:59;;;;;;;;;;;;;;;12.12;49.75;99374.81;5117142;28;20315;-66
2023/03/13 10:30:29;;;;;;;;;;;;;;;11.93;50.36;99375.00;5101284;28;19934;-65
2023/03/13 10:32:59;;;;;;;;;;;;;;;12.00;50.50;99376.63;5116934;28;20331;-64
2023/03/13 10:35:34;;;;;;;;;;;;;;;12.04;50.52;99378.28;5116975;28;19942;-64
2023/03/13 10:38:05;;;;;;;;;;;;;;;12.21;50.62;99382.38;5114697;28;19927;-65
2023/03/13 10:40:33;;;;;;;;;;;;;;;12.16;50.16;99376.47;5111161;28;19923;-65
2023/03/13 10:43:04;;;;;;;;;;;;;;;12.23;50.29;99378.06;5095249;28;20320;-65
2023/03/13 10:45:35;;;;;;;;;;;;;;;12.39;50.62;99369.34;5096034;28;20354;-66
2023/03/13 10:48:11;;;;;;;;;;;;;;;12.72;50.32;99371.44;5096355;28;19982;-65
2023/03/13 10:50:44;;;;;;;;;;;;;;;13.04;49.88;99387.19;5096339;28;20332;-66
2023/03/13 10:53:23;;;;;;;;;;;;;;;13.05;49.85;99377.78;5096645;28;20378;-64
2023/03/13 10:55:55;;;;;;;;;;;;;;;13.14;49.28;99381.06;5096350;28;19929;-65
2023/03/13 10:58:27;;;;;;;;;;;;;;;13.08;49.18;99368.34;5096085;28;19942;-64
2023/03/13 11:01:09;;;;;;;;;;;;;;;12.87;48.96;99367.81;5094593;28;19920;-63
2023/03/13 11:03:37;;;;;;;;;;;;;;;12.66;49.14;99357.03;5096511;28;19927;-63
2023/03/13 11:06:23;;;;;;;;;;;;;;;12.70;49.29;99365.47;5096898;28;20023;-65
2023/03/13 11:08:58;;;;;;;;;;;;;;;12.91;49.27;99354.91;5103466;28;19960;-64
2023/03/13 11:11:29;;;;;;;;;;;;;;;12.79;49.30;99353.41;5095551;28;19920;-64
2023/03/13 11:14:08;;;;;;;;;;;;;;;12.80;49.30;99338.88;5095532;28;19967;-65
2023/03/13 11:16:42;;;;;;;;;;;;;;;12.79;49.46;99334.63;5095744;28;19920;-64
2023/03/13 11:19:19;;;;;;;;;;;;;;;12.76;49.82;99340.63;5095404;28;19962;-64
2023/03/13 11:21:57;;;;;;;;;;;;;;;12.83;50.04;99320.06;5095365;28;19924;-66
2023/03/13 11:24:30;;;;;;;;;;;;;;;12.78;49.73;99322.69;5106670;28;19919;-64
2023/03/13 11:27:05;;;;;;;;;;;;;;;12.89;49.85;99320.81;5095178;28;19924;-64
2023/03/13 11:29:39;;;;;;;;;;;;;;;12.96;50.02;99321.53;5094431;28;19920;-64
2023/03/13 11:32:17;;;;;;;;;;;;;;;12.87;49.38;99304.63;5094793;28;19927;-64
2023/03/13 11:34:48;;;;;;;;;;;;;;;12.88;49.77;99318.28;5095285;28;19955;-64
2023/03/13 11:37:19;;;;;;;;;;;;;;;12.68;49.41;99300.66;5095104;28;20430;-63
2023/03/13 11:39:53;;;;;;;;;;;;;;;12.58;50.16;99299.09;5096904;28;19948;-64
2023/03/13 11:42:40;;;;;;;;;;;;;;;12.58;49.92;99293.97;5110622;28;20006;-64
2023/03/13 11:45:13;;;;;;;;;;;;;;;12.65;50.07;99290.44;5115237;28;19923;-65
2023/03/13 11:47:49;;;;;;;;;;;;;;;12.74;50.23;99285.22;5108675;28;20369;-65
2023/03/13 11:50:31;;;;;;;;;;;;;;;12.93;49.59;99290.88;5096234;28;19924;-64
2023/03/13 11:53:09;;;;;;;;;;;;;;;13.13;49.45;99283.72;5094673;28;20018;-64
2023/03/13 11:55:44;;;;;;;;;;;;;;;13.27;49.04;99287.72;5094464;28;20026;-64
2023/03/13 11:58:23;;;;;;;;;;;;;;;13.30;48.75;99280.00;5095244;28;19970;-64
2023/03/13 12:00:57;;;;;;;;;;;;;;;13.41;48.79;99285.75;5105022;28;19927;-64
2023/03/13 12:03:32;;;;;;;;;;;;;;;13.34;48.59;99284.19;5094815;28;19958;-64
2023/03/13 12:06:01;;;;;;;;;;;;;;;13.30;48.64;99291.97;5102334;28;19919;-64
2023/03/13 12:08:34;;;;;;;;;;;;;;;13.37;49.20;99279.00;5094301;28;19927;-65
2023/03/13 12:11:10;;;;;;;;;;;;;;;13.35;49.51;99270.50;5094404;28;20010;-64
2023/03/13 12:13:40;;;;;;;;;;;;;;;13.23;49.19;99275.00;5094709;28;20267;-63
2023/03/13 12:16:12;;;;;;;;;;;;;;;13.09;49.38;99267.56;5094068;28;19923;-64
2023/03/13 12:18:41;;;;;;;;;;;;;;;13.11;49.78;99258.13;5094861;28;20316;-63
2023/03/13 12:21:16;;;;;;;;;;;;;;;13.07;49.24;99247.97;5094290;28;19924;-64
2023/03/13 12:23:50;;;;;;;;;;;;;;;13.08;49.22;99235.13;5103986;28;19951;-64
2023/03/13 12:26:20;;;;;;;;;;;;;;;13.12;49.35;99198.34;5094156;28;19924;-64
2023/03/13 12:28:52;;;;;;;;;;;;;;;13.20;50.00;99190.47;5094288;28;19930;-65
2023/03/13 12:31:25;;;;;;;;;;;;;;;13.23;50.33;99183.59;5094387;28;19942;-65
2023/03/13 12:33:56;;;;;;;;;;;;;;;13.28;50.31;99161.28;5094092;28;19920;-63
2023/03/13 12:36:29;;;;;;;;;;;;;;;13.28;50.04;99156.16;5094139;28;19920;-64
2023/03/13 12:39:06;;;;;;;;;;;;;;;13.38;50.49;99157.66;5094057;28;19962;-65
2023/03/13 12:41:40;;;;;;;;;;;;;;;13.47;50.26;99153.22;5103622;28;19920;-66
2023/03/13 12:44:11;;;;;;;;;;;;;;;13.51;49.86;99170.25;5094229;28;20433;-65
2023/03/13 12:46:42;;;;;;;;;;;;;;;13.56;49.68;99191.47;5103115;28;19971;-67
2023/03/13 12:49:22;;;;;;;;;;;;;;;13.64;49.62;99215.25;5095016;28;20340;-65
2023/03/13 12:52:01;;;;;;;;;;;;;;;13.66;49.51;99208.34;5093951;28;19951;-64
2023/03/13 12:54:44;;;;;;;;;;;;;;;13.69;49.80;99208.31;5093623;28;19927;-63
2023/03/13 12:57:20;;;;;;;;;;;;;;;13.68;49.59;99206.59;5094464;28;19927;-66
2023/03/13 12:59:53;;;;;;;;;;;;;;;13.74;50.04;99194.50;5093241;28;19927;-65
2023/03/13 13:02:23;;;;;;;;;;;;;;;13.82;50.65;99189.22;5093896;28;19920;-66
2023/03/13 13:04:54;;;;;;;;;;;;;;;13.80;50.88;99178.97;5094942;28;20330;-64
2023/03/13 13:07:25;;;;;;;;;;;;;;;13.81;51.55;99182.41;5098616;28;20289;-64
2023/03/13 13:10:16;;;;;;;;;;;;;;;13.78;51.14;99183.31;5098149;28;20007;-64
2023/03/13 13:12:45;;;;;;;;;;;;;;;13.81;51.67;99205.47;5098240;28;20425;-64
2023/03/13 13:15:20;;;;;;;;;;;;;;;13.83;52.37;99190.91;5098117;28;20327;-64
2023/03/13 13:17:58;;;;;;;;;;;;;;;13.76;52.57;99173.94;5097937;28;20100;-64
2023/03/13 13:20:38;;;;;;;;;;;;;;;13.70;52.89;99161.28;5097323;28;19920;-65
2023/03/13 13:23:17;;;;;;;;;;;;;;;13.64;52.65;99158.81;5098387;28;19920;-65
2023/03/13 13:25:48;;;;;;;;;;;;;;;13.61;51.66;99179.41;5097916;28;20281;-64
2023/03/13 13:28:26;;;;;;;;;;;;;;;13.62;51.79;99181.09;5096644;28;19924;-66
2023/03/13 13:30:56;;;;;;;;;;;;;;;13.64;51.26;99189.59;5097609;28;19946;-64
2023/03/13 13:33:35;;;;;;;;;;;;;;;13.67;52.13;99192.09;5097407;28;19920;-64